sensor_id;sensor_type;location;lat;lon;timestamp;P1;durP1;ratioP1;P2;durP2;ratioP2
70228;SDS011;57617;51.988;5.854;2022-08-14T00:01:02;9.10;;;7.60;;
70228;SDS011;57617;51.988;5.854;2022-08-14T00:03:28;9.43;;;7.32;;
70228;SDS011;57617;51.988;5.854;2022-08-14T00:05:56;9.30;;;7.30;;
70228;SDS011;57617;51.988;5.854;2022-08-14T00:08:23;8.23;;;7.05;;
70228;SDS011;57617;51.988;5.854;2022-08-14T00:10:48;8.55;;;7.65;;
70228;SDS011;57617;51.988;5.854;2022-08-14T00:13:15;11.88;;;6.80;;
70228;SDS011;57617;51.988;5.854;2022-08-14T00:15:43;10.93;;;7.40;;
70228;SDS011;57617;51.988;5.854;2022-08-14T00:18:11;10.63;;;7.13;;
70228;SDS011;57617;51.988;5.854;2022-08-14T00:20:42;11.10;;;7.72;;
70228;SDS011;57617;51.988;5.854;2022-08-14T00:23:08;11.98;;;7.50;;
70228;SDS011;57617;51.988;5.854;2022-08-14T00:25:34;7.85;;;7.05;;
70228;SDS011;57617;51.988;5.854;2022-08-14T00:28:00;10.27;;;7.45;;
70228;SDS011;57617;51.988;5.854;2022-08-14T00:30:26;12.80;;;7.43;;
70228;SDS011;57617;51.988;5.854;2022-08-14T00:32:52;10.85;;;7.68;;
70228;SDS011;57617;51.988;5.854;2022-08-14T00:35:17;9.35;;;7.30;;
70228;SDS011;57617;51.988;5.854;2022-08-14T00:37:43;10.95;;;7.55;;
70228;SDS011;57617;51.988;5.854;2022-08-14T00:40:10;9.63;;;7.40;;
70228;SDS011;57617;51.988;5.854;2022-08-14T00:42:37;7.82;;;7.03;;
70228;SDS011;57617;51.988;5.854;2022-08-14T00:45:04;8.13;;;7.28;;
70228;SDS011;57617;51.988;5.854;2022-08-14T00:47:31;13.73;;;7.43;;
70228;SDS011;57617;51.988;5.854;2022-08-14T00:49:56;12.63;;;7.82;;
70228;SDS011;57617;51.988;5.854;2022-08-14T00:52:22;8.35;;;7.45;;
70228;SDS011;57617;51.988;5.854;2022-08-14T00:54:49;12.63;;;7.88;;
70228;SDS011;57617;51.988;5.854;2022-08-14T00:57:23;9.48;;;8.07;;
70228;SDS011;57617;51.988;5.854;2022-08-14T00:59:49;11.93;;;7.70;;
70228;SDS011;57617;51.988;5.854;2022-08-14T01:02:16;9.70;;;7.43;;
70228;SDS011;57617;51.988;5.854;2022-08-14T01:04:43;13.55;;;8.02;;
70228;SDS011;57617;51.988;5.854;2022-08-14T01:07:11;9.68;;;7.88;;
70228;SDS011;57617;51.988;5.854;2022-08-14T01:09:36;11.82;;;8.05;;
70228;SDS011;57617;51.988;5.854;2022-08-14T01:12:02;9.55;;;8.00;;
70228;SDS011;57617;51.988;5.854;2022-08-14T01:14:29;10.48;;;7.78;;
70228;SDS011;57617;51.988;5.854;2022-08-14T01:16:55;9.68;;;7.85;;
70228;SDS011;57617;51.988;5.854;2022-08-14T01:19:20;9.98;;;7.90;;
70228;SDS011;57617;51.988;5.854;2022-08-14T01:22:05;10.75;;;8.00;;
70228;SDS011;57617;51.988;5.854;2022-08-14T01:24:31;12.35;;;8.20;;
70228;SDS011;57617;51.988;5.854;2022-08-14T01:26:57;10.27;;;7.93;;
70228;SDS011;57617;51.988;5.854;2022-08-14T01:29:23;13.57;;;8.05;;
70228;SDS011;57617;51.988;5.854;2022-08-14T01:31:50;11.15;;;7.60;;
70228;SDS011;57617;51.988;5.854;2022-08-14T01:34:16;12.70;;;8.05;;
70228;SDS011;57617;51.988;5.854;2022-08-14T01:36:44;8.80;;;7.90;;
70228;SDS011;57617;51.988;5.854;2022-08-14T01:39:10;11.68;;;8.25;;
70228;SDS011;57617;51.988;5.854;2022-08-14T01:41:42;11.02;;;8.38;;
70228;SDS011;57617;51.988;5.854;2022-08-14T01:44:11;12.05;;;8.00;;
70228;SDS011;57617;51.988;5.854;2022-08-14T01:46:40;11.73;;;7.97;;
70228;SDS011;57617;51.988;5.854;2022-08-14T01:49:07;10.90;;;8.45;;
70228;SDS011;57617;51.988;5.854;2022-08-14T01:51:34;11.38;;;8.20;;
70228;SDS011;57617;51.988;5.854;2022-08-14T01:54:02;11.35;;;8.18;;
70228;SDS011;57617;51.988;5.854;2022-08-14T01:56:36;12.02;;;8.75;;
70228;SDS011;57617;51.988;5.854;2022-08-14T01:59:07;12.73;;;8.05;;
70228;SDS011;57617;51.988;5.854;2022-08-14T02:01:34;10.10;;;8.25;;
70228;SDS011;57617;51.988;5.854;2022-08-14T02:04:01;11.85;;;7.97;;
70228;SDS011;57617;51.988;5.854;2022-08-14T02:06:28;11.27;;;8.57;;
70228;SDS011;57617;51.988;5.854;2022-08-14T02:08:54;10.93;;;8.23;;
70228;SDS011;57617;51.988;5.854;2022-08-14T02:11:19;10.48;;;8.10;;
70228;SDS011;57617;51.988;5.854;2022-08-14T02:13:52;10.50;;;8.10;;
70228;SDS011;57617;51.988;5.854;2022-08-14T02:16:22;11.48;;;8.27;;
70228;SDS011;57617;51.988;5.854;2022-08-14T02:18:54;10.63;;;8.38;;
70228;SDS011;57617;51.988;5.854;2022-08-14T02:21:21;11.27;;;8.43;;
70228;SDS011;57617;51.988;5.854;2022-08-14T02:23:48;10.20;;;7.60;;
70228;SDS011;57617;51.988;5.854;2022-08-14T02:26:28;10.02;;;8.40;;
70228;SDS011;57617;51.988;5.854;2022-08-14T02:29:06;10.23;;;7.97;;
70228;SDS011;57617;51.988;5.854;2022-08-14T02:31:34;12.45;;;8.10;;
70228;SDS011;57617;51.988;5.854;2022-08-14T02:34:03;12.05;;;8.20;;
70228;SDS011;57617;51.988;5.854;2022-08-14T02:36:35;13.13;;;8.52;;
70228;SDS011;57617;51.988;5.854;2022-08-14T02:39:05;13.05;;;8.40;;
70228;SDS011;57617;51.988;5.854;2022-08-14T02:41:32;12.52;;;8.05;;
70228;SDS011;57617;51.988;5.854;2022-08-14T02:43:59;10.20;;;8.60;;
70228;SDS011;57617;51.988;5.854;2022-08-14T02:46:24;10.23;;;7.95;;
70228;SDS011;57617;51.988;5.854;2022-08-14T02:48:50;17.48;;;8.15;;
70228;SDS011;57617;51.988;5.854;2022-08-14T02:51:15;11.43;;;8.48;;
70228;SDS011;57617;51.988;5.854;2022-08-14T02:53:41;10.85;;;8.10;;
70228;SDS011;57617;51.988;5.854;2022-08-14T02:56:08;11.93;;;8.55;;
70228;SDS011;57617;51.988;5.854;2022-08-14T02:58:36;12.82;;;9.20;;
70228;SDS011;57617;51.988;5.854;2022-08-14T03:01:04;12.18;;;8.70;;
70228;SDS011;57617;51.988;5.854;2022-08-14T03:03:31;10.23;;;8.85;;
70228;SDS011;57617;51.988;5.854;2022-08-14T03:05:56;10.55;;;8.23;;
70228;SDS011;57617;51.988;5.854;2022-08-14T03:08:21;13.73;;;8.95;;
70228;SDS011;57617;51.988;5.854;2022-08-14T03:10:47;14.30;;;8.80;;
70228;SDS011;57617;51.988;5.854;2022-08-14T03:13:12;10.38;;;8.40;;
70228;SDS011;57617;51.988;5.854;2022-08-14T03:15:38;10.02;;;8.63;;
70228;SDS011;57617;51.988;5.854;2022-08-14T03:18:17;10.82;;;9.20;;
70228;SDS011;57617;51.988;5.854;2022-08-14T03:20:47;10.52;;;8.52;;
70228;SDS011;57617;51.988;5.854;2022-08-14T03:23:12;10.70;;;8.63;;
70228;SDS011;57617;51.988;5.854;2022-08-14T03:25:38;14.63;;;9.40;;
70228;SDS011;57617;51.988;5.854;2022-08-14T03:28:07;10.25;;;8.82;;
70228;SDS011;57617;51.988;5.854;2022-08-14T03:30:34;12.88;;;8.57;;
70228;SDS011;57617;51.988;5.854;2022-08-14T03:33:00;12.65;;;8.70;;
70228;SDS011;57617;51.988;5.854;2022-08-14T03:35:26;11.90;;;8.68;;
70228;SDS011;57617;51.988;5.854;2022-08-14T03:37:52;11.70;;;9.07;;
70228;SDS011;57617;51.988;5.854;2022-08-14T03:40:18;11.05;;;8.93;;
70228;SDS011;57617;51.988;5.854;2022-08-14T03:42:44;11.23;;;9.00;;
70228;SDS011;57617;51.988;5.854;2022-08-14T03:45:10;11.90;;;9.38;;
70228;SDS011;57617;51.988;5.854;2022-08-14T03:47:35;13.75;;;9.10;;
70228;SDS011;57617;51.988;5.854;2022-08-14T03:50:04;12.80;;;8.98;;
70228;SDS011;57617;51.988;5.854;2022-08-14T03:52:33;12.85;;;9.10;;
70228;SDS011;57617;51.988;5.854;2022-08-14T03:54:59;11.82;;;9.40;;
70228;SDS011;57617;51.988;5.854;2022-08-14T03:57:24;12.13;;;9.18;;
70228;SDS011;57617;51.988;5.854;2022-08-14T03:59:53;12.65;;;9.48;;
70228;SDS011;57617;51.988;5.854;2022-08-14T04:02:18;12.45;;;9.70;;
70228;SDS011;57617;51.988;5.854;2022-08-14T04:04:46;13.40;;;8.80;;
70228;SDS011;57617;51.988;5.854;2022-08-14T04:07:11;11.93;;;9.80;;
70228;SDS011;57617;51.988;5.854;2022-08-14T04:09:36;14.70;;;9.93;;
70228;SDS011;57617;51.988;5.854;2022-08-14T04:12:02;11.38;;;9.65;;
70228;SDS011;57617;51.988;5.854;2022-08-14T04:14:27;12.93;;;9.52;;
70228;SDS011;57617;51.988;5.854;2022-08-14T04:16:53;12.95;;;9.70;;
70228;SDS011;57617;51.988;5.854;2022-08-14T04:19:18;16.05;;;10.10;;
70228;SDS011;57617;51.988;5.854;2022-08-14T04:21:47;16.42;;;10.07;;
70228;SDS011;57617;51.988;5.854;2022-08-14T04:24:15;11.80;;;9.95;;
70228;SDS011;57617;51.988;5.854;2022-08-14T04:26:41;12.27;;;9.43;;
70228;SDS011;57617;51.988;5.854;2022-08-14T04:29:09;13.60;;;10.27;;
70228;SDS011;57617;51.988;5.854;2022-08-14T04:31:37;13.05;;;9.57;;
70228;SDS011;57617;51.988;5.854;2022-08-14T04:34:03;14.85;;;9.82;;
70228;SDS011;57617;51.988;5.854;2022-08-14T04:36:29;12.90;;;9.73;;
70228;SDS011;57617;51.988;5.854;2022-08-14T04:38:55;14.63;;;10.10;;
70228;SDS011;57617;51.988;5.854;2022-08-14T04:41:59;12.68;;;10.05;;
70228;SDS011;57617;51.988;5.854;2022-08-14T04:44:43;12.38;;;10.00;;
70228;SDS011;57617;51.988;5.854;2022-08-14T04:47:08;17.67;;;10.65;;
70228;SDS011;57617;51.988;5.854;2022-08-14T04:49:52;14.13;;;10.15;;
70228;SDS011;57617;51.988;5.854;2022-08-14T04:52:17;17.77;;;9.80;;
70228;SDS011;57617;51.988;5.854;2022-08-14T04:54:42;19.25;;;10.70;;
70228;SDS011;57617;51.988;5.854;2022-08-14T04:57:07;13.73;;;10.18;;
70228;SDS011;57617;51.988;5.854;2022-08-14T04:59:33;14.13;;;10.07;;
70228;SDS011;57617;51.988;5.854;2022-08-14T05:01:59;15.35;;;10.00;;
70228;SDS011;57617;51.988;5.854;2022-08-14T05:04:24;17.70;;;11.02;;
70228;SDS011;57617;51.988;5.854;2022-08-14T05:06:50;13.90;;;9.63;;
70228;SDS011;57617;51.988;5.854;2022-08-14T05:09:16;20.05;;;10.50;;
70228;SDS011;57617;51.988;5.854;2022-08-14T05:11:42;15.80;;;10.75;;
70228;SDS011;57617;51.988;5.854;2022-08-14T05:14:07;12.93;;;10.02;;
70228;SDS011;57617;51.988;5.854;2022-08-14T05:16:32;18.52;;;10.23;;
70228;SDS011;57617;51.988;5.854;2022-08-14T05:18:58;12.70;;;10.45;;
70228;SDS011;57617;51.988;5.854;2022-08-14T05:21:23;18.42;;;10.65;;
70228;SDS011;57617;51.988;5.854;2022-08-14T05:23:50;16.60;;;9.95;;
70228;SDS011;57617;51.988;5.854;2022-08-14T05:26:16;16.42;;;10.13;;
70228;SDS011;57617;51.988;5.854;2022-08-14T05:28:43;15.30;;;10.48;;
70228;SDS011;57617;51.988;5.854;2022-08-14T05:31:10;15.15;;;10.40;;
70228;SDS011;57617;51.988;5.854;2022-08-14T05:33:37;14.15;;;10.60;;
70228;SDS011;57617;51.988;5.854;2022-08-14T05:36:04;12.20;;;10.00;;
70228;SDS011;57617;51.988;5.854;2022-08-14T05:38:32;25.48;;;10.73;;
70228;SDS011;57617;51.988;5.854;2022-08-14T05:41:00;13.20;;;10.15;;
70228;SDS011;57617;51.988;5.854;2022-08-14T05:43:31;13.52;;;10.43;;
70228;SDS011;57617;51.988;5.854;2022-08-14T05:45:57;14.13;;;10.30;;
70228;SDS011;57617;51.988;5.854;2022-08-14T05:48:23;13.70;;;10.70;;
70228;SDS011;57617;51.988;5.854;2022-08-14T05:50:49;16.70;;;10.95;;
70228;SDS011;57617;51.988;5.854;2022-08-14T05:53:15;13.90;;;10.38;;
70228;SDS011;57617;51.988;5.854;2022-08-14T05:55:41;13.20;;;10.50;;
70228;SDS011;57617;51.988;5.854;2022-08-14T05:58:06;14.85;;;10.55;;
70228;SDS011;57617;51.988;5.854;2022-08-14T06:00:35;15.63;;;10.32;;
70228;SDS011;57617;51.988;5.854;2022-08-14T06:03:02;21.17;;;10.45;;
70228;SDS011;57617;51.988;5.854;2022-08-14T06:05:29;17.67;;;11.00;;
70228;SDS011;57617;51.988;5.854;2022-08-14T06:07:58;14.13;;;10.75;;
70228;SDS011;57617;51.988;5.854;2022-08-14T06:10:24;12.80;;;10.43;;
70228;SDS011;57617;51.988;5.854;2022-08-14T06:12:51;14.05;;;10.60;;
70228;SDS011;57617;51.988;5.854;2022-08-14T06:15:16;16.30;;;10.93;;
70228;SDS011;57617;51.988;5.854;2022-08-14T06:17:45;15.48;;;10.43;;
70228;SDS011;57617;51.988;5.854;2022-08-14T06:20:12;16.23;;;10.82;;
70228;SDS011;57617;51.988;5.854;2022-08-14T06:22:39;14.65;;;11.30;;
70228;SDS011;57617;51.988;5.854;2022-08-14T06:25:06;14.40;;;11.30;;
70228;SDS011;57617;51.988;5.854;2022-08-14T06:27:36;14.68;;;11.20;;
70228;SDS011;57617;51.988;5.854;2022-08-14T06:30:10;19.42;;;11.48;;
70228;SDS011;57617;51.988;5.854;2022-08-14T06:32:49;16.40;;;11.32;;
70228;SDS011;57617;51.988;5.854;2022-08-14T06:35:14;14.90;;;10.93;;
70228;SDS011;57617;51.988;5.854;2022-08-14T06:37:43;20.52;;;11.25;;
70228;SDS011;57617;51.988;5.854;2022-08-14T06:40:14;16.25;;;11.63;;
70228;SDS011;57617;51.988;5.854;2022-08-14T06:42:42;17.10;;;11.02;;
70228;SDS011;57617;51.988;5.854;2022-08-14T06:45:07;18.58;;;10.88;;
70228;SDS011;57617;51.988;5.854;2022-08-14T06:47:33;15.05;;;10.82;;
70228;SDS011;57617;51.988;5.854;2022-08-14T06:50:00;13.82;;;11.02;;
70228;SDS011;57617;51.988;5.854;2022-08-14T06:52:29;18.88;;;11.60;;
70228;SDS011;57617;51.988;5.854;2022-08-14T06:54:55;16.58;;;11.23;;
70228;SDS011;57617;51.988;5.854;2022-08-14T06:57:21;17.38;;;11.38;;
70228;SDS011;57617;51.988;5.854;2022-08-14T06:59:47;15.50;;;11.20;;
70228;SDS011;57617;51.988;5.854;2022-08-14T07:02:12;17.52;;;12.10;;
70228;SDS011;57617;51.988;5.854;2022-08-14T07:04:56;17.00;;;11.27;;
70228;SDS011;57617;51.988;5.854;2022-08-14T07:07:41;16.15;;;11.60;;
70228;SDS011;57617;51.988;5.854;2022-08-14T07:10:06;18.85;;;12.02;;
70228;SDS011;57617;51.988;5.854;2022-08-14T07:12:32;14.02;;;11.32;;
70228;SDS011;57617;51.988;5.854;2022-08-14T07:14:58;17.63;;;12.07;;
70228;SDS011;57617;51.988;5.854;2022-08-14T07:17:23;16.98;;;11.57;;
70228;SDS011;57617;51.988;5.854;2022-08-14T07:19:48;14.27;;;11.52;;
70228;SDS011;57617;51.988;5.854;2022-08-14T07:22:14;14.88;;;11.15;;
70228;SDS011;57617;51.988;5.854;2022-08-14T07:24:39;17.85;;;11.57;;
70228;SDS011;57617;51.988;5.854;2022-08-14T07:27:04;18.48;;;12.32;;
70228;SDS011;57617;51.988;5.854;2022-08-14T07:29:29;15.18;;;12.15;;
70228;SDS011;57617;51.988;5.854;2022-08-14T07:31:55;14.65;;;11.98;;
70228;SDS011;57617;51.988;5.854;2022-08-14T07:34:20;15.40;;;11.82;;
70228;SDS011;57617;51.988;5.854;2022-08-14T07:36:46;17.50;;;12.25;;
70228;SDS011;57617;51.988;5.854;2022-08-14T07:39:12;14.50;;;11.68;;
70228;SDS011;57617;51.988;5.854;2022-08-14T07:41:37;17.48;;;11.88;;
70228;SDS011;57617;51.988;5.854;2022-08-14T07:44:03;14.90;;;12.43;;
70228;SDS011;57617;51.988;5.854;2022-08-14T07:46:28;17.88;;;11.55;;
70228;SDS011;57617;51.988;5.854;2022-08-14T07:48:54;17.35;;;11.73;;
70228;SDS011;57617;51.988;5.854;2022-08-14T07:51:20;17.10;;;11.68;;
70228;SDS011;57617;51.988;5.854;2022-08-14T07:53:46;20.73;;;12.30;;
70228;SDS011;57617;51.988;5.854;2022-08-14T07:56:11;16.30;;;13.30;;
70228;SDS011;57617;51.988;5.854;2022-08-14T07:58:37;16.50;;;12.30;;
70228;SDS011;57617;51.988;5.854;2022-08-14T08:01:02;14.90;;;12.20;;
70228;SDS011;57617;51.988;5.854;2022-08-14T08:03:30;17.70;;;11.80;;
70228;SDS011;57617;51.988;5.854;2022-08-14T08:05:58;15.27;;;12.27;;
70228;SDS011;57617;51.988;5.854;2022-08-14T08:08:25;15.73;;;12.32;;
70228;SDS011;57617;51.988;5.854;2022-08-14T08:10:54;16.52;;;12.20;;
70228;SDS011;57617;51.988;5.854;2022-08-14T08:13:21;14.98;;;12.77;;
70228;SDS011;57617;51.988;5.854;2022-08-14T08:15:47;14.95;;;12.18;;
70228;SDS011;57617;51.988;5.854;2022-08-14T08:18:15;17.05;;;12.10;;
70228;SDS011;57617;51.988;5.854;2022-08-14T08:20:45;16.55;;;12.32;;
70228;SDS011;57617;51.988;5.854;2022-08-14T08:23:13;14.05;;;11.88;;
70228;SDS011;57617;51.988;5.854;2022-08-14T08:25:40;15.52;;;12.30;;
70228;SDS011;57617;51.988;5.854;2022-08-14T08:28:11;14.23;;;11.23;;
70228;SDS011;57617;51.988;5.854;2022-08-14T08:30:48;14.95;;;10.73;;
70228;SDS011;57617;51.988;5.854;2022-08-14T08:33:17;13.30;;;11.48;;
70228;SDS011;57617;51.988;5.854;2022-08-14T08:35:44;17.48;;;11.80;;
70228;SDS011;57617;51.988;5.854;2022-08-14T08:38:10;15.45;;;11.65;;
70228;SDS011;57617;51.988;5.854;2022-08-14T08:40:42;13.32;;;11.18;;
70228;SDS011;57617;51.988;5.854;2022-08-14T08:45:42;14.65;;;11.23;;
70228;SDS011;57617;51.988;5.854;2022-08-14T08:48:08;13.65;;;11.25;;
70228;SDS011;57617;51.988;5.854;2022-08-14T08:50:36;15.32;;;10.93;;
70228;SDS011;57617;51.988;5.854;2022-08-14T08:53:04;15.40;;;10.52;;
70228;SDS011;57617;51.988;5.854;2022-08-14T08:55:33;14.88;;;11.32;;
70228;SDS011;57617;51.988;5.854;2022-08-14T08:58:12;13.80;;;11.27;;
70228;SDS011;57617;51.988;5.854;2022-08-14T09:00:44;14.52;;;11.68;;
70228;SDS011;57617;51.988;5.854;2022-08-14T09:03:16;13.50;;;11.30;;
70228;SDS011;57617;51.988;5.854;2022-08-14T09:05:54;14.52;;;10.55;;
70228;SDS011;57617;51.988;5.854;2022-08-14T09:08:28;13.73;;;10.05;;
70228;SDS011;57617;51.988;5.854;2022-08-14T09:11:00;18.38;;;11.40;;
70228;SDS011;57617;51.988;5.854;2022-08-14T09:13:27;14.52;;;10.52;;
70228;SDS011;57617;51.988;5.854;2022-08-14T09:15:53;14.57;;;11.35;;
70228;SDS011;57617;51.988;5.854;2022-08-14T09:18:20;12.70;;;10.40;;
70228;SDS011;57617;51.988;5.854;2022-08-14T09:20:50;18.50;;;10.15;;
70228;SDS011;57617;51.988;5.854;2022-08-14T09:23:17;12.98;;;10.60;;
70228;SDS011;57617;51.988;5.854;2022-08-14T09:25:43;11.85;;;9.77;;
70228;SDS011;57617;51.988;5.854;2022-08-14T09:28:11;11.90;;;10.23;;
70228;SDS011;57617;51.988;5.854;2022-08-14T09:30:40;12.95;;;9.70;;
70228;SDS011;57617;51.988;5.854;2022-08-14T09:36:19;12.18;;;9.50;;
70228;SDS011;57617;51.988;5.854;2022-08-14T09:41:36;12.50;;;9.57;;
70228;SDS011;57617;51.988;5.854;2022-08-14T09:47:05;13.10;;;9.70;;
70228;SDS011;57617;51.988;5.854;2022-08-14T09:49:32;12.10;;;8.70;;
70228;SDS011;57617;51.988;5.854;2022-08-14T09:52:06;10.02;;;8.88;;
70228;SDS011;57617;51.988;5.854;2022-08-14T09:54:45;12.68;;;9.23;;
70228;SDS011;57617;51.988;5.854;2022-08-14T09:57:32;10.15;;;8.88;;
70228;SDS011;57617;51.988;5.854;2022-08-14T09:59:57;10.40;;;8.38;;
70228;SDS011;57617;51.988;5.854;2022-08-14T10:02:23;10.27;;;8.27;;
70228;SDS011;57617;51.988;5.854;2022-08-14T10:05:13;10.93;;;8.45;;
70228;SDS011;57617;51.988;5.854;2022-08-14T10:13:06;9.23;;;8.32;;
70228;SDS011;57617;51.988;5.854;2022-08-14T10:15:44;11.70;;;8.35;;
70228;SDS011;57617;51.988;5.854;2022-08-14T10:18:11;11.95;;;8.45;;
70228;SDS011;57617;51.988;5.854;2022-08-14T10:20:42;9.80;;;8.35;;
70228;SDS011;57617;51.988;5.854;2022-08-14T10:23:22;9.73;;;8.05;;
70228;SDS011;57617;51.988;5.854;2022-08-14T10:25:50;9.70;;;8.23;;
70228;SDS011;57617;51.988;5.854;2022-08-14T10:28:18;9.52;;;8.32;;
70228;SDS011;57617;51.988;5.854;2022-08-14T10:30:46;9.90;;;7.93;;
70228;SDS011;57617;51.988;5.854;2022-08-14T10:33:36;10.00;;;8.40;;
70228;SDS011;57617;51.988;5.854;2022-08-14T10:36:00;10.07;;;7.70;;
70228;SDS011;57617;51.988;5.854;2022-08-14T10:38:31;10.55;;;8.27;;
70228;SDS011;57617;51.988;5.854;2022-08-14T10:41:16;10.95;;;7.88;;
70228;SDS011;57617;51.988;5.854;2022-08-14T10:43:42;8.90;;;7.97;;
70228;SDS011;57617;51.988;5.854;2022-08-14T10:46:11;9.50;;;7.47;;
70228;SDS011;57617;51.988;5.854;2022-08-14T10:48:41;8.63;;;7.75;;
70228;SDS011;57617;51.988;5.854;2022-08-14T10:51:24;10.00;;;7.78;;
70228;SDS011;57617;51.988;5.854;2022-08-14T10:53:53;17.55;;;7.97;;
70228;SDS011;57617;51.988;5.854;2022-08-14T10:56:27;9.02;;;7.85;;
70228;SDS011;57617;51.988;5.854;2022-08-14T10:59:01;10.23;;;7.00;;
70228;SDS011;57617;51.988;5.854;2022-08-14T11:01:31;8.70;;;7.13;;
70228;SDS011;57617;51.988;5.854;2022-08-14T11:03:58;8.65;;;7.47;;
70228;SDS011;57617;51.988;5.854;2022-08-14T11:06:24;9.00;;;7.30;;
70228;SDS011;57617;51.988;5.854;2022-08-14T11:08:49;11.23;;;7.43;;
70228;SDS011;57617;51.988;5.854;2022-08-14T11:11:16;7.72;;;6.97;;
70228;SDS011;57617;51.988;5.854;2022-08-14T11:13:42;9.95;;;7.38;;
70228;SDS011;57617;51.988;5.854;2022-08-14T11:16:08;10.95;;;7.45;;
70228;SDS011;57617;51.988;5.854;2022-08-14T11:18:35;9.50;;;7.78;;
70228;SDS011;57617;51.988;5.854;2022-08-14T11:21:01;8.77;;;7.43;;
70228;SDS011;57617;51.988;5.854;2022-08-14T11:23:30;8.57;;;7.22;;
70228;SDS011;57617;51.988;5.854;2022-08-14T11:26:02;9.18;;;7.85;;
70228;SDS011;57617;51.988;5.854;2022-08-14T11:28:30;9.48;;;7.45;;
70228;SDS011;57617;51.988;5.854;2022-08-14T11:30:57;8.23;;;7.43;;
70228;SDS011;57617;51.988;5.854;2022-08-14T11:33:23;10.02;;;7.70;;
70228;SDS011;57617;51.988;5.854;2022-08-14T11:35:55;8.93;;;7.10;;
70228;SDS011;57617;51.988;5.854;2022-08-14T11:38:24;7.80;;;6.95;;
70228;SDS011;57617;51.988;5.854;2022-08-14T11:40:49;8.15;;;6.90;;
70228;SDS011;57617;51.988;5.854;2022-08-14T11:43:15;7.95;;;6.78;;
70228;SDS011;57617;51.988;5.854;2022-08-14T11:45:43;7.50;;;6.75;;
70228;SDS011;57617;51.988;5.854;2022-08-14T11:48:16;8.57;;;6.60;;
70228;SDS011;57617;51.988;5.854;2022-08-14T11:50:42;11.77;;;7.20;;
70228;SDS011;57617;51.988;5.854;2022-08-14T11:53:17;8.27;;;6.70;;
70228;SDS011;57617;51.988;5.854;2022-08-14T11:55:44;7.47;;;6.75;;
70228;SDS011;57617;51.988;5.854;2022-08-14T11:58:10;8.32;;;6.95;;
70228;SDS011;57617;51.988;5.854;2022-08-14T12:00:49;6.50;;;5.90;;
70228;SDS011;57617;51.988;5.854;2022-08-14T12:03:17;7.00;;;6.30;;
70228;SDS011;57617;51.988;5.854;2022-08-14T12:05:43;8.25;;;6.32;;
70228;SDS011;57617;51.988;5.854;2022-08-14T12:08:09;7.40;;;6.70;;
70228;SDS011;57617;51.988;5.854;2022-08-14T12:10:40;7.18;;;6.47;;
70228;SDS011;57617;51.988;5.854;2022-08-14T12:13:25;6.88;;;6.18;;
70228;SDS011;57617;51.988;5.854;2022-08-14T12:15:57;7.90;;;6.13;;
70228;SDS011;57617;51.988;5.854;2022-08-14T12:18:44;8.93;;;6.68;;
70228;SDS011;57617;51.988;5.854;2022-08-14T12:23:40;8.88;;;6.45;;
70228;SDS011;57617;51.988;5.854;2022-08-14T12:26:07;10.52;;;6.82;;
70228;SDS011;57617;51.988;5.854;2022-08-14T12:28:34;9.15;;;6.75;;
70228;SDS011;57617;51.988;5.854;2022-08-14T12:31:10;7.32;;;6.60;;
70228;SDS011;57617;51.988;5.854;2022-08-14T12:33:37;8.43;;;6.70;;
70228;SDS011;57617;51.988;5.854;2022-08-14T12:36:03;8.40;;;6.35;;
70228;SDS011;57617;51.988;5.854;2022-08-14T12:38:36;7.65;;;6.82;;
70228;SDS011;57617;51.988;5.854;2022-08-14T12:41:09;8.00;;;6.90;;
70228;SDS011;57617;51.988;5.854;2022-08-14T12:43:43;7.30;;;6.55;;
70228;SDS011;57617;51.988;5.854;2022-08-14T12:46:18;8.68;;;6.38;;
70228;SDS011;57617;51.988;5.854;2022-08-14T12:48:46;8.13;;;6.28;;
70228;SDS011;57617;51.988;5.854;2022-08-14T12:51:21;8.20;;;6.07;;
70228;SDS011;57617;51.988;5.854;2022-08-14T12:53:49;7.95;;;6.78;;
70228;SDS011;57617;51.988;5.854;2022-08-14T12:56:16;7.63;;;6.80;;
70228;SDS011;57617;51.988;5.854;2022-08-14T12:58:47;9.45;;;6.50;;
70228;SDS011;57617;51.988;5.854;2022-08-14T13:01:32;7.88;;;6.70;;
70228;SDS011;57617;51.988;5.854;2022-08-14T13:04:10;7.65;;;6.85;;
70228;SDS011;57617;51.988;5.854;2022-08-14T13:06:37;9.88;;;6.53;;
70228;SDS011;57617;51.988;5.854;2022-08-14T13:09:05;9.63;;;6.57;;
70228;SDS011;57617;51.988;5.854;2022-08-14T13:11:50;8.10;;;6.65;;
70228;SDS011;57617;51.988;5.854;2022-08-14T13:14:18;7.15;;;6.43;;
70228;SDS011;57617;51.988;5.854;2022-08-14T13:16:52;11.32;;;6.70;;
70228;SDS011;57617;51.988;5.854;2022-08-14T13:19:19;7.68;;;6.88;;
70228;SDS011;57617;51.988;5.854;2022-08-14T13:21:45;7.53;;;6.75;;
70228;SDS011;57617;51.988;5.854;2022-08-14T13:24:15;7.30;;;6.60;;
70228;SDS011;57617;51.988;5.854;2022-08-14T13:26:44;7.32;;;6.63;;
70228;SDS011;57617;51.988;5.854;2022-08-14T13:29:13;8.82;;;6.85;;
70228;SDS011;57617;51.988;5.854;2022-08-14T13:31:40;7.70;;;6.90;;
70228;SDS011;57617;51.988;5.854;2022-08-14T13:34:08;7.10;;;6.40;;
70228;SDS011;57617;51.988;5.854;2022-08-14T13:36:36;8.55;;;6.85;;
70228;SDS011;57617;51.988;5.854;2022-08-14T13:39:02;9.65;;;6.60;;
70228;SDS011;57617;51.988;5.854;2022-08-14T13:41:27;9.55;;;6.43;;
70228;SDS011;57617;51.988;5.854;2022-08-14T13:43:52;7.80;;;6.82;;
70228;SDS011;57617;51.988;5.854;2022-08-14T13:46:20;9.07;;;6.80;;
70228;SDS011;57617;51.988;5.854;2022-08-14T13:48:46;7.03;;;6.32;;
70228;SDS011;57617;51.988;5.854;2022-08-14T13:51:11;6.70;;;6.00;;
70228;SDS011;57617;51.988;5.854;2022-08-14T13:53:43;7.30;;;6.53;;
70228;SDS011;57617;51.988;5.854;2022-08-14T13:56:10;9.55;;;6.60;;
70228;SDS011;57617;51.988;5.854;2022-08-14T13:58:35;7.20;;;6.50;;
70228;SDS011;57617;51.988;5.854;2022-08-14T14:01:01;7.10;;;6.40;;
70228;SDS011;57617;51.988;5.854;2022-08-14T14:03:32;8.23;;;6.65;;
70228;SDS011;57617;51.988;5.854;2022-08-14T14:05:59;7.18;;;6.35;;
70228;SDS011;57617;51.988;5.854;2022-08-14T14:08:26;9.30;;;6.20;;
70228;SDS011;57617;51.988;5.854;2022-08-14T14:10:52;6.82;;;6.20;;
70228;SDS011;57617;51.988;5.854;2022-08-14T14:13:19;7.88;;;6.18;;
70228;SDS011;57617;51.988;5.854;2022-08-14T14:15:47;7.05;;;5.90;;
70228;SDS011;57617;51.988;5.854;2022-08-14T14:18:12;10.68;;;6.07;;
70228;SDS011;57617;51.988;5.854;2022-08-14T14:20:42;7.10;;;6.30;;
70228;SDS011;57617;51.988;5.854;2022-08-14T14:23:07;7.47;;;6.00;;
70228;SDS011;57617;51.988;5.854;2022-08-14T14:25:43;8.55;;;6.50;;
70228;SDS011;57617;51.988;5.854;2022-08-14T14:28:12;8.55;;;6.22;;
70228;SDS011;57617;51.988;5.854;2022-08-14T14:30:45;6.82;;;6.22;;
70228;SDS011;57617;51.988;5.854;2022-08-14T14:33:11;6.72;;;6.13;;
70228;SDS011;57617;51.988;5.854;2022-08-14T14:35:40;6.72;;;5.68;;
70228;SDS011;57617;51.988;5.854;2022-08-14T14:38:08;7.45;;;6.15;;
70228;SDS011;57617;51.988;5.854;2022-08-14T14:40:39;6.57;;;5.68;;
70228;SDS011;57617;51.988;5.854;2022-08-14T14:43:07;6.53;;;5.80;;
70228;SDS011;57617;51.988;5.854;2022-08-14T14:45:35;6.57;;;5.90;;
70228;SDS011;57617;51.988;5.854;2022-08-14T14:48:01;7.75;;;6.38;;
70228;SDS011;57617;51.988;5.854;2022-08-14T14:50:30;9.63;;;5.90;;
70228;SDS011;57617;51.988;5.854;2022-08-14T14:52:56;6.78;;;5.90;;
70228;SDS011;57617;51.988;5.854;2022-08-14T14:55:22;6.20;;;5.70;;
70228;SDS011;57617;51.988;5.854;2022-08-14T14:57:49;6.35;;;5.75;;
70228;SDS011;57617;51.988;5.854;2022-08-14T15:00:15;8.10;;;5.63;;
70228;SDS011;57617;51.988;5.854;2022-08-14T15:02:44;8.38;;;6.05;;